Eftichia — C6ZI4 — position and weather

sailwx.info

Track history (hours):
 
Tides and Currents Weather Stations Pressure Air Temp Water Temp Dewpoint Dewpoint Depression Visibility Wind Speed Wind Dir Waves Ship Positions

Eftichia

Last reported at 2016-Jul-11 15:33 UTC. Time now 2016-Aug-24 12:03 UTC.
Position N 01°15' E 104°01'.
Warning: this ship's position is 43 days out of date.

Length 181 m; draft 6.1 m.

Type: Cargo ship. MMSI: 311033882.

Date/timePositionNaut miles runAvg speedWind from/ knotsBaromVisibWave heightAir tempDewpointWater temp
2016-Jul-11 15:33N 01°15' E 104°01'8 7.7
2016-Jul-11 14:33N 01°14' E 103°53'1 1.4
2016-Jul-11 13:30N 01°16' E 103°53'0 0.0
2016-Jul-11 12:24N 01°16' E 103°53'0 0.1
2016-Jul-11 11:27N 01°16' E 103°53'0 0.0
2016-Jul-11 10:24N 01°16' E 103°53'0 0.1
2016-Jul-11 09:30N 01°16' E 103°53'0 0.1
2016-Jul-11 08:30N 01°16' E 103°53'0 0.1
2016-Jul-11 07:30N 01°16' E 103°53'0 0.1
2016-Jul-11 06:30N 01°16' E 103°53'0 0.0
2016-Jul-11 04:30N 01°16' E 103°53'0 0.0
2016-Jul-11 03:30N 01°16' E 103°53'0 0.1
2016-Jul-11 01:18N 01°16' E 103°53'0 0.0
2016-Jul-11 00:30N 01°16' E 103°53'1 1.4
2016-Jul-10 23:33N 01°15' E 103°55'3 2.9
2016-Jul-10 22:33N 01°12' E 103°53'6 6.4
2016-Jul-10 21:33N 01°09' E 103°47'9310.3
2016-Jul-10 12:33N 01°49' E 102°24'  
Track history (hours):
 
Tides and Currents Weather Stations Pressure Air Temp Water Temp Dewpoint Dewpoint Depression Visibility Wind Speed Wind Dir Waves Ship Positions

Eftichia

Last reported at 2016-Jul-11 15:33 UTC. Time now 2016-Aug-24 12:03 UTC.
Position N 01°15' E 104°01'.
Warning: this ship's position is 43 days out of date.

Length 181 m; draft 6.1 m.

Type: Cargo ship. MMSI: 311033882.

Date/timePositionNaut miles runAvg speedWind from/ knotsBaromVisibWave heightAir tempDewpointWater temp
2016-Jul-11 15:33N 01°15' E 104°01'8 7.7
2016-Jul-11 14:33N 01°14' E 103°53'1 1.4
2016-Jul-11 13:30N 01°16' E 103°53'0 0.0
2016-Jul-11 12:24N 01°16' E 103°53'0 0.1
2016-Jul-11 11:27N 01°16' E 103°53'0 0.0
2016-Jul-11 10:24N 01°16' E 103°53'0 0.1
2016-Jul-11 09:30N 01°16' E 103°53'0 0.1
2016-Jul-11 08:30N 01°16' E 103°53'0 0.1
2016-Jul-11 07:30N 01°16' E 103°53'0 0.1
2016-Jul-11 06:30N 01°16' E 103°53'0 0.0
2016-Jul-11 04:30N 01°16' E 103°53'0 0.0
2016-Jul-11 03:30N 01°16' E 103°53'0 0.1
2016-Jul-11 01:18N 01°16' E 103°53'0 0.0
2016-Jul-11 00:30N 01°16' E 103°53'1 1.4
2016-Jul-10 23:33N 01°15' E 103°55'3 2.9
2016-Jul-10 22:33N 01°12' E 103°53'6 6.4
2016-Jul-10 21:33N 01°09' E 103°47'9310.3
2016-Jul-10 12:33N 01°49' E 102°24'  

Dump ship's entire track history